Time;durP1;ratioP1;P1;durP2;ratioP2;P2;SDS_P1;SDS_P2;PMS_P1;PMS_P2;Temp;Humidity;BMP_temperature;BMP_pressure;BME280_temperature;BME280_humidity;BME280_pressure;Samples;Min_cycle;Max_cycle;Signal;HPM_P1;HPM_P2
2023/09/26 00:02:12;;;;;;;3.95;3.05;;;14.20;96.90;;;;;;5047517;28;20425;-71
2023/09/26 00:04:39;;;;;;;2.97;2.55;;;14.20;96.80;;;;;;5043405;28;20428;-71
2023/09/26 00:07:06;;;;;;;3.00;2.60;;;14.20;96.50;;;;;;5043291;28;20935;-71
2023/09/26 00:09:35;;;;;;;3.33;3.03;;;14.20;96.70;;;;;;5042334;28;20986;-71
2023/09/26 00:12:03;;;;;;;4.00;3.10;;;14.20;96.90;;;;;;5043177;28;20793;-72
2023/09/26 00:14:29;;;;;;;3.30;3.00;;;14.20;97.10;;;;;;5037020;28;20436;-72
2023/09/26 00:16:56;;;;;;;4.05;3.22;;;14.10;97.10;;;;;;5043065;28;20466;-72
2023/09/26 00:19:23;;;;;;;3.20;2.90;;;14.10;97.20;;;;;;5043172;28;20425;-72
2023/09/26 00:21:50;;;;;;;3.50;3.20;;;14.10;97.40;;;;;;5039686;28;20440;-71
2023/09/26 00:24:16;;;;;;;4.32;2.97;;;14.00;97.50;;;;;;5043010;28;20429;-72
2023/09/26 00:26:44;;;;;;;4.75;3.25;;;14.10;97.70;;;;;;5042850;28;20413;-71
2023/09/26 00:29:11;;;;;;;3.58;3.28;;;14.00;97.80;;;;;;5041010;28;20544;-72
2023/09/26 00:31:38;;;;;;;3.10;2.80;;;14.00;98.30;;;;;;5042582;28;20438;-72
2023/09/26 00:34:05;;;;;;;3.72;2.80;;;14.00;97.80;;;;;;5042630;28;20413;-71
2023/09/26 00:36:32;;;;;;;3.70;2.80;;;14.00;97.70;;;;;;5041716;28;20502;-72
2023/09/26 00:38:59;;;;;;;4.18;3.20;;;14.00;98.10;;;;;;5042611;28;20410;-72
2023/09/26 00:41:25;;;;;;;4.72;3.40;;;13.90;97.90;;;;;;5042668;28;20413;-72
2023/09/26 00:43:53;;;;;;;3.85;3.25;;;13.90;97.90;;;;;;5041024;28;20451;-72
2023/09/26 00:46:20;;;;;;;4.03;3.58;;;13.90;98.30;;;;;;5042876;28;20416;-72
2023/09/26 00:48:47;;;;;;;3.50;2.85;;;13.90;98.20;;;;;;5043252;28;20925;-72
2023/09/26 00:51:14;;;;;;;4.67;3.10;;;13.90;98.20;;;;;;5032002;28;20510;-72
2023/09/26 00:53:42;;;;;;;4.50;3.50;;;13.80;98.30;;;;;;5041464;28;20413;-72
2023/09/26 00:56:10;;;;;;;3.30;3.00;;;13.80;98.50;;;;;;5042851;28;20799;-72
2023/09/26 00:58:37;;;;;;;3.40;3.10;;;13.80;99.00;;;;;;5041289;28;20409;-73
2023/09/26 01:01:06;;;;;;;3.97;3.33;;;13.80;99.20;;;;;;5045928;28;20423;-72
2023/09/26 01:03:33;;;;;;;4.38;3.70;;;13.80;99.00;;;;;;5042213;28;20437;-73
2023/09/26 01:06:02;;;;;;;4.30;3.72;;;13.80;98.90;;;;;;5038120;28;20762;-73
2023/09/26 01:08:30;;;;;;;3.60;2.90;;;13.70;99.10;;;;;;5042324;28;20504;-73
2023/09/26 01:10:57;;;;;;;3.70;3.30;;;13.70;99.10;;;;;;5043556;28;20900;-74
2023/09/26 01:13:24;;;;;;;3.92;3.53;;;13.70;99.10;;;;;;5039599;28;20417;-72
2023/09/26 01:15:51;;;;;;;3.55;3.25;;;13.70;99.40;;;;;;5040171;28;20448;-73
2023/09/26 01:18:23;;;;;;;5.00;3.50;;;13.60;99.50;;;;;;5042255;28;20428;-72
2023/09/26 01:20:50;;;;;;;4.50;3.42;;;13.60;99.50;;;;;;5043295;28;20441;-71
2023/09/26 01:23:19;;;;;;;4.00;3.53;;;13.60;99.80;;;;;;5037478;28;20577;-73
2023/09/26 01:25:47;;;;;;;5.50;4.10;;;13.60;99.80;;;;;;5042697;28;20428;-72
2023/09/26 01:28:18;;;;;;;4.22;3.30;;;13.50;99.40;;;;;;5041739;28;20420;-72
2023/09/26 01:30:44;;;;;;;5.65;3.50;;;13.50;99.40;;;;;;5039435;28;20521;-72
2023/09/26 01:33:16;;;;;;;3.80;3.40;;;13.50;99.40;;;;;;5041417;28;20429;-73
2023/09/26 01:35:43;;;;;;;4.50;3.20;;;13.50;99.60;;;;;;5043665;28;20428;-73
2023/09/26 01:38:09;;;;;;;4.30;3.40;;;13.50;99.50;;;;;;5043563;28;20459;-73
2023/09/26 01:40:36;;;;;;;3.85;3.40;;;13.40;99.30;;;;;;5045992;28;20720;-72
2023/09/26 01:43:04;;;;;;;4.18;3.78;;;13.40;99.30;;;;;;5044770;28;20421;-72
2023/09/26 01:45:31;;;;;;;5.75;3.70;;;13.30;99.50;;;;;;5043406;28;20445;-72
2023/09/26 01:47:59;;;;;;;4.60;4.03;;;13.30;99.60;;;;;;5045519;28;20412;-73
2023/09/26 01:50:26;;;;;;;4.10;3.50;;;13.30;99.80;;;;;;5045562;28;20432;-72
2023/09/26 01:52:53;;;;;;;5.30;3.60;;;13.30;99.90;;;;;;5045432;28;20504;-73
2023/09/26 01:55:21;;;;;;;5.63;3.60;;;13.30;99.90;;;;;;5045529;28;20421;-72
2023/09/26 01:57:48;;;;;;;4.10;3.80;;;13.30;99.70;;;;;;5045659;28;20852;-72
2023/09/26 02:00:19;;;;;;;4.55;4.00;;;13.20;99.80;;;;;;5044643;28;20772;-72
2023/09/26 02:02:48;;;;;;;4.10;3.65;;;13.20;99.80;;;;;;5040883;28;20433;-73
2023/09/26 02:05:16;;;;;;;3.80;3.50;;;13.20;99.80;;;;;;5042045;28;20506;-73
2023/09/26 02:07:43;;;;;;;5.45;3.58;;;13.20;99.90;;;;;;5045288;28;20421;-72
2023/09/26 02:10:11;;;;;;;4.90;4.15;;;13.10;99.90;;;;;;5044423;28;20907;-72
2023/09/26 02:12:39;;;;;;;5.00;3.33;;;13.10;99.90;;;;;;5045974;28;20717;-72
2023/09/26 02:15:08;;;;;;;3.90;3.60;;;13.10;99.90;;;;;;5043726;28;20440;-74
2023/09/26 02:17:36;;;;;;;4.30;3.90;;;13.10;99.90;;;;;;5045742;28;20878;-72
2023/09/26 02:20:08;;;;;;;4.53;3.80;;;13.10;99.90;;;;;;5036513;28;20428;-73
2023/09/26 02:22:36;;;;;;;4.20;3.80;;;13.10;99.90;;;;;;5045671;28;20464;-72
2023/09/26 02:25:04;;;;;;;4.47;4.05;;;13.00;99.90;;;;;;5036629;28;20421;-73
2023/09/26 02:27:31;;;;;;;4.10;3.80;;;13.00;99.90;;;;;;5044270;28;20757;-73
2023/09/26 02:29:58;;;;;;;4.20;3.80;;;13.00;99.90;;;;;;5044953;28;20409;-72
2023/09/26 02:32:25;;;;;;;4.47;4.07;;;12.90;99.90;;;;;;5045120;28;20896;-72
2023/09/26 02:34:53;;;;;;;5.25;4.28;;;13.00;99.90;;;;;;5042439;28;20530;-72
2023/09/26 02:37:20;;;;;;;4.88;3.70;;;12.90;99.90;;;;;;5045548;28;20432;-73
2023/09/26 02:39:47;;;;;;;5.30;4.30;;;12.90;99.90;;;;;;5044913;28;20432;-73
2023/09/26 02:42:14;;;;;;;4.23;3.83;;;12.90;99.90;;;;;;5042706;28;21002;-72
2023/09/26 02:44:41;;;;;;;5.07;4.00;;;12.90;99.90;;;;;;5041113;28;20511;-72
2023/09/26 02:47:07;;;;;;;4.22;3.90;;;12.90;99.90;;;;;;5044328;28;20410;-72
2023/09/26 02:49:34;;;;;;;4.32;3.92;;;12.90;99.90;;;;;;5044615;28;20527;-73
2023/09/26 02:52:02;;;;;;;4.47;4.07;;;12.80;99.90;;;;;;5044573;28;20945;-71
2023/09/26 02:54:29;;;;;;;4.67;4.27;;;12.80;99.90;;;;;;5045031;28;20447;-72
2023/09/26 02:56:57;;;;;;;4.30;3.90;;;12.80;99.90;;;;;;5044245;28;20417;-72
2023/09/26 02:59:24;;;;;;;4.50;4.10;;;12.80;99.90;;;;;;5041817;28;20429;-73
2023/09/26 03:01:51;;;;;;;4.60;4.20;;;12.80;99.90;;;;;;5044907;28;20896;-74
2023/09/26 03:04:18;;;;;;;5.15;4.10;;;12.80;99.90;;;;;;5044574;28;20585;-72
2023/09/26 03:06:45;;;;;;;5.63;4.00;;;12.80;99.90;;;;;;5044337;28;20496;-74
2023/09/26 03:09:15;;;;;;;7.10;5.13;;;12.80;99.90;;;;;;5043202;28;20440;-72
2023/09/26 03:11:41;;;;;;;4.60;3.97;;;12.80;99.90;;;;;;5042911;28;20444;-72
2023/09/26 03:14:08;;;;;;;4.80;4.40;;;12.80;99.90;;;;;;5038262;28;20754;-73
2023/09/26 03:16:35;;;;;;;4.72;4.10;;;12.80;99.90;;;;;;5043954;28;20436;-73
2023/09/26 03:19:02;;;;;;;4.75;4.25;;;12.70;99.90;;;;;;5044949;28;20405;-73
2023/09/26 03:21:28;;;;;;;4.70;4.30;;;12.70;99.90;;;;;;5044776;28;20629;-72
2023/09/26 03:23:55;;;;;;;4.40;4.05;;;12.70;99.90;;;;;;5044191;28;20883;-72
2023/09/26 03:26:23;;;;;;;5.10;4.60;;;12.60;99.90;;;;;;5044421;28;20902;-72
2023/09/26 03:28:50;;;;;;;4.70;4.30;;;12.60;99.90;;;;;;5041830;28;20433;-72
2023/09/26 03:31:17;;;;;;;5.50;4.10;;;12.60;99.90;;;;;;5044363;28;20775;-72
2023/09/26 03:33:43;;;;;;;4.90;4.50;;;12.60;99.90;;;;;;5043510;28;20412;-72
2023/09/26 03:36:10;;;;;;;4.85;4.35;;;12.50;99.90;;;;;;5044332;28;20417;-71
2023/09/26 03:38:37;;;;;;;4.88;4.35;;;12.50;99.90;;;;;;5043382;28;20685;-72
2023/09/26 03:41:05;;;;;;;4.95;4.55;;;12.50;99.90;;;;;;5042285;28;20437;-73
2023/09/26 03:43:33;;;;;;;5.50;5.00;;;12.50;99.90;;;;;;5041601;28;20920;-72
2023/09/26 03:46:02;;;;;;;5.18;4.60;;;12.40;99.90;;;;;;5043687;28;20752;-73
2023/09/26 03:48:29;;;;;;;5.17;4.67;;;12.40;99.90;;;;;;5043562;28;20749;-72
2023/09/26 03:50:56;;;;;;;4.95;4.45;;;12.40;99.90;;;;;;5042338;28;20425;-72
2023/09/26 03:53:23;;;;;;;4.85;4.45;;;12.40;99.90;;;;;;5042665;28;20873;-73
2023/09/26 03:55:54;;;;;;;5.30;4.80;;;12.40;99.90;;;;;;5042333;28;20868;-74
2023/09/26 03:58:21;;;;;;;5.13;4.63;;;12.40;99.90;;;;;;5041546;28;20429;-73
2023/09/26 04:00:49;;;;;;;5.10;4.70;;;12.40;99.90;;;;;;5047787;28;20415;-73
2023/09/26 04:03:16;;;;;;;5.30;4.80;;;12.40;99.90;;;;;;5042349;28;20902;-73
2023/09/26 04:05:46;;;;;;;5.28;4.78;;;12.30;99.90;;;;;;5042728;28;20469;-72
2023/09/26 04:08:13;;;;;;;5.22;4.72;;;12.40;99.90;;;;;;5034442;28;20758;-72
2023/09/26 04:10:40;;;;;;;5.70;4.70;;;12.30;99.90;;;;;;5043130;28;20420;-74
2023/09/26 04:13:07;;;;;;;5.20;4.70;;;12.30;99.90;;;;;;5039407;28;20463;-71
2023/09/26 04:15:36;;;;;;;4.90;4.40;;;12.30;99.90;;;;;;5044569;28;20490;-72
2023/09/26 04:18:05;;;;;;;5.20;4.80;;;12.20;99.90;;;;;;5039571;28;20905;-72
2023/09/26 04:20:35;;;;;;;5.20;4.80;;;12.20;99.90;;;;;;5047762;28;20416;-72
2023/09/26 04:23:02;;;;;;;5.45;4.70;;;12.20;99.90;;;;;;5042431;28;20429;-73
2023/09/26 04:25:30;;;;;;;5.20;4.80;;;12.20;99.90;;;;;;5047283;28;20899;-72
2023/09/26 04:27:57;;;;;;;5.68;5.18;;;12.10;99.90;;;;;;5034663;28;20760;-72
2023/09/26 04:30:24;;;;;;;5.20;4.80;;;12.10;99.90;;;;;;5042956;28;20495;-72
2023/09/26 04:32:50;;;;;;;5.03;4.60;;;12.10;99.90;;;;;;5042290;28;20576;-72
2023/09/26 04:35:19;;;;;;;5.10;4.60;;;12.10;99.90;;;;;;5042793;28;20527;-71
2023/09/26 04:37:46;;;;;;;5.22;4.72;;;12.10;99.90;;;;;;5043645;28;20422;-72
2023/09/26 04:40:14;;;;;;;5.47;4.97;;;12.10;99.90;;;;;;5042640;28;20437;-72
2023/09/26 04:42:42;;;;;;;4.90;4.50;;;12.10;99.90;;;;;;5043651;28;20445;-71
2023/09/26 04:45:09;;;;;;;5.50;5.03;;;12.10;99.90;;;;;;5041526;28;20933;-71
2023/09/26 04:47:37;;;;;;;4.80;4.40;;;12.10;99.90;;;;;;5043141;28;20413;-71
2023/09/26 04:50:04;;;;;;;5.75;5.25;;;12.10;99.90;;;;;;5037419;28;20411;-71
2023/09/26 04:52:32;;;;;;;5.97;5.47;;;12.00;99.90;;;;;;5038320;28;20429;-76
2023/09/26 04:54:59;;;;;;;5.88;5.05;;;12.00;99.90;;;;;;5035818;28;20429;-77
2023/09/26 04:57:25;;;;;;;5.70;5.20;;;12.00;99.90;;;;;;5037876;28;20437;-72
2023/09/26 04:59:54;;;;;;;6.05;4.97;;;12.00;99.90;;;;;;5037017;28;20838;-73
2023/09/26 05:02:21;;;;;;;5.28;4.80;;;12.00;99.90;;;;;;5036021;28;20459;-73
2023/09/26 05:04:48;;;;;;;5.50;4.80;;;12.00;99.90;;;;;;5036378;28;20493;-73
2023/09/26 05:07:16;;;;;;;5.40;4.90;;;12.00;99.90;;;;;;5038964;28;20460;-72
2023/09/26 05:09:44;;;;;;;6.00;5.50;;;12.00;99.90;;;;;;5041044;28;20481;-72
2023/09/26 05:12:10;;;;;;;6.25;5.75;;;11.90;99.90;;;;;;5042970;28;20460;-72
2023/09/26 05:14:37;;;;;;;5.57;5.05;;;11.90;99.90;;;;;;5039115;28;20425;-72
2023/09/26 05:17:04;;;;;;;5.63;5.13;;;11.90;99.90;;;;;;5044616;28;20607;-71
2023/09/26 05:19:31;;;;;;;6.50;5.57;;;11.90;99.90;;;;;;5048143;28;20428;-71
2023/09/26 05:21:58;;;;;;;6.68;5.10;;;11.90;99.90;;;;;;5043744;28;20511;-70
2023/09/26 05:24:25;;;;;;;5.72;5.22;;;11.90;99.90;;;;;;5046157;28;20425;-72
2023/09/26 05:26:53;;;;;;;6.03;5.47;;;11.90;99.90;;;;;;5044257;28;20872;-71
2023/09/26 05:29:19;;;;;;;5.78;5.28;;;11.90;99.90;;;;;;5044131;28;20481;-71
2023/09/26 05:31:46;;;;;;;5.40;5.00;;;11.90;99.90;;;;;;5046006;28;20429;-71
2023/09/26 05:34:13;;;;;;;5.78;5.28;;;11.90;99.90;;;;;;5043732;28;20463;-72
2023/09/26 05:36:40;;;;;;;5.45;4.95;;;12.00;99.90;;;;;;5045065;28;20599;-71
2023/09/26 05:39:06;;;;;;;5.80;5.30;;;12.00;99.90;;;;;;5045691;28;20413;-71
2023/09/26 05:41:33;;;;;;;5.30;4.82;;;12.00;99.90;;;;;;5045700;28;20432;-72
2023/09/26 05:44:01;;;;;;;6.15;5.65;;;11.90;99.90;;;;;;5045757;28;20476;-71
2023/09/26 05:46:28;;;;;;;5.20;4.70;;;12.00;99.90;;;;;;5043648;28;20528;-71
2023/09/26 05:48:54;;;;;;;5.47;4.97;;;12.00;99.90;;;;;;5040474;28;20553;-71
2023/09/26 05:51:21;;;;;;;5.30;4.80;;;12.00;99.90;;;;;;5043560;28;20525;-72
2023/09/26 05:53:48;;;;;;;5.23;4.73;;;12.00;99.90;;;;;;5044382;28;20401;-72
2023/09/26 05:56:14;;;;;;;5.10;4.60;;;12.00;99.90;;;;;;5043011;28;20448;-71
2023/09/26 05:58:41;;;;;;;5.30;4.80;;;12.00;99.90;;;;;;5045531;28;20420;-71
2023/09/26 06:01:09;;;;;;;5.50;4.90;;;12.00;99.90;;;;;;5050370;28;20415;-72
2023/09/26 06:03:36;;;;;;;4.63;4.22;;;12.10;99.90;;;;;;5044811;28;20604;-71
2023/09/26 06:06:04;;;;;;;5.13;4.63;;;12.10;99.90;;;;;;5043686;28;20634;-72
2023/09/26 06:08:30;;;;;;;5.90;4.65;;;12.10;99.90;;;;;;5044493;28;20500;-72
2023/09/26 06:10:57;;;;;;;5.38;4.85;;;12.10;99.90;;;;;;5042957;28;20451;-74
2023/09/26 06:13:24;;;;;;;5.55;5.03;;;12.10;99.90;;;;;;5047188;28;20856;-72
2023/09/26 06:15:51;;;;;;;5.70;5.20;;;12.20;99.90;;;;;;5041059;28;20452;-73
2023/09/26 06:18:19;;;;;;;6.30;5.40;;;12.20;99.90;;;;;;5041010;28;20488;-71
2023/09/26 06:20:46;;;;;;;6.40;5.70;;;12.20;99.90;;;;;;5040013;28;20457;-72
2023/09/26 06:23:13;;;;;;;6.00;5.40;;;12.30;99.90;;;;;;5045198;28;20475;-71
2023/09/26 06:25:40;;;;;;;5.80;5.20;;;12.30;99.90;;;;;;5044693;28;20479;-72
2023/09/26 06:28:08;;;;;;;5.43;4.93;;;12.30;99.90;;;;;;5046058;28;20401;-71
2023/09/26 06:30:34;;;;;;;5.30;4.80;;;12.40;99.90;;;;;;5046584;28;20856;-72
2023/09/26 06:33:01;;;;;;;6.40;5.60;;;12.40;99.90;;;;;;5044496;28;20517;-72
2023/09/26 06:35:32;;;;;;;5.70;5.10;;;12.40;99.90;;;;;;5045140;28;20602;-74
2023/09/26 06:37:59;;;;;;;5.05;4.55;;;12.50;99.90;;;;;;5043380;28;20616;-72
2023/09/26 06:40:26;;;;;;;5.00;4.50;;;12.50;99.90;;;;;;5042561;28;20543;-74
2023/09/26 06:42:53;;;;;;;5.50;4.88;;;12.60;99.90;;;;;;5045451;28;20413;-72
2023/09/26 06:45:19;;;;;;;5.63;5.13;;;12.70;99.90;;;;;;5046026;28;20433;-72
2023/09/26 06:47:46;;;;;;;5.75;5.10;;;12.70;99.90;;;;;;5045445;28;20769;-72
2023/09/26 06:50:13;;;;;;;5.30;4.80;;;12.70;99.90;;;;;;5044885;28;20413;-71
2023/09/26 06:52:41;;;;;;;4.90;4.50;;;12.80;99.90;;;;;;5045838;28;20490;-72
2023/09/26 06:55:10;;;;;;;4.80;4.40;;;12.80;99.90;;;;;;5045649;28;20835;-72
2023/09/26 06:57:37;;;;;;;5.80;5.10;;;12.80;99.90;;;;;;5045602;28;20799;-71
2023/09/26 07:00:06;;;;;;;5.10;4.30;;;12.90;99.90;;;;;;5044578;28;20415;-72
2023/09/26 07:02:33;;;;;;;5.38;4.88;;;12.90;99.90;;;;;;5050747;28;20621;-72
2023/09/26 07:05:00;;;;;;;4.80;4.40;;;12.90;99.90;;;;;;5044439;28;20508;-72
2023/09/26 07:07:31;;;;;;;4.95;4.45;;;13.00;99.90;;;;;;5045693;28;20413;-72
2023/09/26 07:09:59;;;;;;;5.60;5.10;;;13.00;99.90;;;;;;5042740;28;20586;-72
2023/09/26 07:12:26;;;;;;;6.63;4.85;;;13.10;99.90;;;;;;5045377;28;20894;-71
2023/09/26 07:14:53;;;;;;;5.15;4.65;;;13.20;99.70;;;;;;5040251;28;21017;-74
2023/09/26 07:17:19;;;;;;;5.40;4.90;;;13.30;99.30;;;;;;5043775;28;20433;-72
2023/09/26 07:19:46;;;;;;;6.20;5.13;;;13.30;99.00;;;;;;5044606;28;20516;-73
2023/09/26 07:22:13;;;;;;;5.93;4.95;;;13.40;98.90;;;;;;5045719;28;20741;-72
2023/09/26 07:24:40;;;;;;;5.07;4.40;;;13.50;98.50;;;;;;5044113;28;20425;-72
2023/09/26 07:27:09;;;;;;;5.32;4.82;;;13.60;98.10;;;;;;5037420;28;20418;-72
2023/09/26 07:29:36;;;;;;;5.20;4.70;;;13.80;97.90;;;;;;5044972;28;20453;-72
2023/09/26 07:32:03;;;;;;;5.47;4.90;;;13.90;97.30;;;;;;5044246;28;20417;-73
2023/09/26 07:34:30;;;;;;;5.38;4.30;;;14.00;97.10;;;;;;5043293;28;20490;-73
2023/09/26 07:36:57;;;;;;;5.00;4.60;;;14.20;96.70;;;;;;5044770;28;20417;-72
2023/09/26 07:39:24;;;;;;;5.32;4.70;;;14.30;96.10;;;;;;5043950;28;20429;-71
2023/09/26 07:41:50;;;;;;;6.50;5.00;;;14.50;95.70;;;;;;5045332;28;20420;-72
2023/09/26 07:44:18;;;;;;;4.97;4.57;;;14.50;95.60;;;;;;5071129;22;20447;-71
2023/09/26 07:46:45;;;;;;;4.78;4.38;;;14.70;95.00;;;;;;5064728;28;20424;-70
2023/09/26 07:49:13;;;;;;;5.00;4.60;;;14.80;94.70;;;;;;5074773;28;20419;-72
2023/09/26 07:51:40;;;;;;;5.10;4.60;;;14.90;94.10;;;;;;5088651;28;20413;-69
2023/09/26 07:54:08;;;;;;;5.00;4.50;;;15.00;93.90;;;;;;5072825;28;20435;-70
2023/09/26 07:56:34;;;;;;;4.80;4.40;;;15.10;93.70;;;;;;5077699;28;20423;-70
2023/09/26 07:59:02;;;;;;;5.10;4.60;;;15.20;92.90;;;;;;5075048;28;20908;-70
2023/09/26 08:01:31;;;;;;;4.82;4.43;;;15.30;92.70;;;;;;5073598;28;20431;-70
2023/09/26 08:03:58;;;;;;;5.97;4.50;;;15.50;92.30;;;;;;5070205;28;20419;-69
2023/09/26 08:06:24;;;;;;;4.60;4.20;;;15.60;92.00;;;;;;5079825;28;20434;-70
2023/09/26 08:08:51;;;;;;;4.47;4.07;;;15.70;91.80;;;;;;5091524;28;20412;-70
2023/09/26 08:11:18;;;;;;;4.50;4.10;;;15.80;91.60;;;;;;5083877;28;20438;-70
2023/09/26 08:13:45;;;;;;;4.80;4.40;;;16.00;91.10;;;;;;5067596;28;20476;-71
2023/09/26 08:16:11;;;;;;;7.18;4.05;;;16.10;90.80;;;;;;5073381;28;20427;-69
2023/09/26 08:18:39;;;;;;;4.90;3.70;;;16.20;90.70;;;;;;5077934;28;20422;-72
2023/09/26 08:21:06;;;;;;;4.60;4.07;;;16.40;90.30;;;;;;5075897;28;20426;-71
2023/09/26 08:23:33;;;;;;;4.35;3.85;;;16.60;89.10;;;;;;5072233;28;20415;-71
2023/09/26 08:26:01;;;;;;;4.20;3.80;;;16.80;88.30;;;;;;5083158;28;20429;-69
2023/09/26 08:28:28;;;;;;;3.85;3.55;;;17.00;87.00;;;;;;5078803;28;20419;-70
2023/09/26 08:30:56;;;;;;;4.40;4.00;;;17.00;86.00;;;;;;5079748;28;20439;-70
2023/09/26 08:33:23;;;;;;;4.30;3.90;;;17.10;86.40;;;;;;5073997;28;20436;-72
2023/09/26 08:35:51;;;;;;;5.60;3.60;;;17.20;85.60;;;;;;5070806;28;20832;-70
2023/09/26 08:38:18;;;;;;;3.90;3.50;;;17.40;84.90;;;;;;5074793;28;20418;-71
2023/09/26 08:40:45;;;;;;;6.20;3.80;;;17.50;83.50;;;;;;5072825;28;20439;-70
2023/09/26 08:43:14;;;;;;;4.10;3.70;;;17.60;84.00;;;;;;5067067;28;20408;-72
2023/09/26 08:45:41;;;;;;;3.30;2.88;;;17.80;83.50;;;;;;5070394;28;20484;-72
2023/09/26 08:48:08;;;;;;;3.80;3.40;;;18.10;81.90;;;;;;5080366;28;20408;-73
2023/09/26 08:50:35;;;;;;;3.80;3.40;;;18.40;80.00;;;;;;5070350;28;20993;-72
2023/09/26 08:53:04;;;;;;;4.40;3.10;;;18.60;79.70;;;;;;5076833;28;20408;-71
2023/09/26 08:55:31;;;;;;;3.92;3.55;;;18.80;78.80;;;;;;5067573;28;20423;-71
2023/09/26 08:57:58;;;;;;;4.60;3.50;;;18.90;77.80;;;;;;5070389;28;20423;-72
2023/09/26 09:00:27;;;;;;;3.92;3.22;;;18.90;77.40;;;;;;5071659;28;20454;-72
2023/09/26 09:02:54;;;;;;;4.38;3.40;;;19.10;77.60;;;;;;5068722;28;20422;-72
2023/09/26 09:05:22;;;;;;;4.50;3.30;;;19.30;76.40;;;;;;5068124;28;20433;-72
2023/09/26 09:07:50;;;;;;;3.42;3.08;;;19.50;76.40;;;;;;5071822;28;20431;-72
2023/09/26 09:10:18;;;;;;;3.38;2.80;;;19.70;74.30;;;;;;5072582;28;20503;-72
2023/09/26 09:12:47;;;;;;;3.13;2.80;;;19.80;73.60;;;;;;5067354;28;20432;-73
2023/09/26 09:15:23;;;;;;;4.20;2.97;;;19.80;72.80;;;;;;5075705;28;20444;-73
2023/09/26 09:17:52;;;;;;;3.50;2.60;;;19.90;72.20;;;;;;5071416;28;20431;-73
2023/09/26 09:20:29;;;;;;;4.15;3.25;;;19.90;72.60;;;;;;5074574;28;20434;-70
2023/09/26 09:23:01;;;;;;;3.47;2.88;;;20.00;72.40;;;;;;5072210;28;20411;-72
2023/09/26 09:25:33;;;;;;;3.30;3.00;;;20.00;71.80;;;;;;5072525;28;20547;-72
2023/09/26 09:28:00;;;;;;;4.97;3.70;;;20.00;71.40;;;;;;5068189;28;20473;-73
2023/09/26 09:30:28;;;;;;;4.10;2.90;;;20.20;71.40;;;;;;5070967;28;20413;-70
2023/09/26 09:32:55;;;;;;;3.20;2.90;;;20.40;69.90;;;;;;5068602;28;20952;-71
2023/09/26 09:35:22;;;;;;;4.47;2.97;;;20.40;69.80;;;;;;5068328;28;20408;-74
2023/09/26 09:37:50;;;;;;;3.10;2.78;;;20.50;69.50;;;;;;5070675;28;20416;-73
2023/09/26 09:40:17;;;;;;;3.70;2.78;;;20.50;69.60;;;;;;5067014;28;20939;-72
2023/09/26 09:42:45;;;;;;;3.00;2.70;;;20.50;69.70;;;;;;5071540;28;20860;-71
2023/09/26 09:45:12;;;;;;;3.63;2.35;;;20.70;69.60;;;;;;5071455;28;20929;-71
2023/09/26 09:47:42;;;;;;;3.65;2.60;;;21.00;69.40;;;;;;5073727;28;20444;-72
2023/09/26 09:50:10;;;;;;;3.85;2.45;;;21.20;68.60;;;;;;5068920;28;20419;-71
2023/09/26 09:52:43;;;;;;;4.75;3.00;;;21.50;67.50;;;;;;5068818;28;20459;-72
2023/09/26 09:55:14;;;;;;;4.30;2.80;;;21.80;65.30;;;;;;5072899;28;20658;-73
2023/09/26 09:57:47;;;;;;;3.90;2.70;;;21.90;64.60;;;;;;5066602;28;20404;-73
2023/09/26 10:00:14;;;;;;;2.67;2.40;;;22.20;62.90;;;;;;5072614;28;20415;-71
2023/09/26 10:02:42;;;;;;;4.18;2.50;;;22.30;62.90;;;;;;5070912;28;20415;-74
2023/09/26 10:05:12;;;;;;;2.60;2.40;;;22.40;61.80;;;;;;5074108;28;20432;-73
2023/09/26 10:07:40;;;;;;;2.35;2.15;;;22.40;61.10;;;;;;5077403;28;20494;-71
2023/09/26 10:10:09;;;;;;;3.00;2.35;;;22.40;61.50;;;;;;5072687;28;20440;-73
2023/09/26 10:12:37;;;;;;;3.60;2.30;;;22.40;61.50;;;;;;5075173;28;20434;-72
2023/09/26 10:15:09;;;;;;;3.45;2.33;;;22.40;61.60;;;;;;5073244;28;20416;-72
2023/09/26 10:17:36;;;;;;;2.97;2.50;;;22.50;61.30;;;;;;5069151;28;20435;-71
2023/09/26 10:20:05;;;;;;;3.70;2.40;;;22.50;61.90;;;;;;5073917;28;20840;-72
2023/09/26 10:22:34;;;;;;;2.60;2.30;;;22.70;60.80;;;;;;5078765;28;20429;-73
2023/09/26 10:25:02;;;;;;;3.60;2.30;;;22.70;61.50;;;;;;5077948;28;20421;-73
2023/09/26 10:27:39;;;;;;;3.20;2.10;;;22.70;60.40;;;;;;5069330;28;20468;-74
2023/09/26 10:30:10;;;;;;;3.13;2.05;;;22.80;61.50;;;;;;5072262;28;20412;-73
2023/09/26 10:32:40;;;;;;;3.20;2.50;;;23.00;59.60;;;;;;5071062;28;20411;-72
2023/09/26 10:35:26;;;;;;;3.20;2.20;;;23.20;58.60;;;;;;5067208;28;20812;-74
2023/09/26 10:37:56;;;;;;;2.60;2.30;;;23.30;57.70;;;;;;5073414;28;20428;-74
2023/09/26 10:40:22;;;;;;;3.10;1.90;;;23.40;58.00;;;;;;5070161;28;20888;-73
2023/09/26 10:42:50;;;;;;;3.90;2.03;;;23.60;57.10;;;;;;5071575;28;20414;-74
2023/09/26 10:45:19;;;;;;;2.22;2.03;;;23.80;56.80;;;;;;5073371;28;20428;-73
2023/09/26 10:47:46;;;;;;;4.03;2.15;;;24.00;56.60;;;;;;5079585;28;20411;-73
2023/09/26 10:50:13;;;;;;;2.63;2.00;;;24.10;56.40;;;;;;5072426;28;20416;-71
2023/09/26 10:52:46;;;;;;;3.65;2.30;;;24.20;55.60;;;;;;5071791;28;20493;-72
2023/09/26 10:55:13;;;;;;;3.08;2.40;;;24.20;55.00;;;;;;5069895;28;20431;-72
2023/09/26 10:57:40;;;;;;;4.10;2.00;;;24.10;55.20;;;;;;5071012;28;20416;-73
2023/09/26 11:00:12;;;;;;;2.58;2.20;;;24.20;55.50;;;;;;5070253;28;20404;-73
2023/09/26 11:02:40;;;;;;;4.25;2.33;;;24.30;55.10;;;;;;5076954;28;20427;-72
2023/09/26 11:05:09;;;;;;;2.53;2.10;;;24.40;54.60;;;;;;5070053;28;20432;-73
2023/09/26 11:07:36;;;;;;;2.50;2.30;;;24.40;54.40;;;;;;5071299;28;20430;-72
2023/09/26 11:10:04;;;;;;;2.50;2.10;;;24.70;53.40;;;;;;5068163;28;20482;-73
2023/09/26 11:12:31;;;;;;;2.97;1.80;;;24.70;52.20;;;;;;5071351;28;20419;-73
2023/09/26 11:14:59;;;;;;;3.10;1.90;;;24.80;52.40;;;;;;5073162;28;20846;-72
2023/09/26 11:17:27;;;;;;;2.25;1.65;;;24.90;51.50;;;;;;5069383;28;20528;-74
2023/09/26 11:19:57;;;;;;;2.10;1.75;;;25.00;50.70;;;;;;5072961;28;20423;-74
2023/09/26 11:22:24;;;;;;;1.88;1.63;;;25.10;49.50;;;;;;5069611;28;20493;-73
2023/09/26 11:25:04;;;;;;;3.20;1.90;;;25.20;47.90;;;;;;5084039;28;20451;-72
2023/09/26 11:27:31;;;;;;;3.65;1.80;;;25.00;48.70;;;;;;5079219;28;20461;-73
2023/09/26 11:30:01;;;;;;;3.08;1.80;;;25.30;48.30;;;;;;5079276;28;20670;-73
2023/09/26 11:32:28;;;;;;;2.97;1.80;;;25.50;47.20;;;;;;5071850;28;20406;-73
2023/09/26 11:34:55;;;;;;;2.58;1.52;;;25.30;47.60;;;;;;5079506;28;20411;-73
2023/09/26 11:37:24;;;;;;;2.30;1.80;;;25.40;47.30;;;;;;5072277;28;20426;-73
2023/09/26 11:39:51;;;;;;;2.50;1.70;;;25.30;47.70;;;;;;5065121;28;20423;-73
2023/09/26 11:42:18;;;;;;;1.50;1.35;;;25.20;45.80;;;;;;5071136;28;20430;-74
2023/09/26 11:44:53;;;;;;;2.30;1.70;;;25.20;43.80;;;;;;5075372;28;20423;-70
2023/09/26 11:47:21;;;;;;;1.90;1.50;;;25.20;43.20;;;;;;5077529;28;20471;-73
2023/09/26 11:49:49;;;;;;;1.80;1.60;;;25.10;43.80;;;;;;5069595;28;20518;-73
2023/09/26 11:52:17;;;;;;;2.58;1.42;;;25.10;42.80;;;;;;5078948;28;20441;-74
2023/09/26 11:54:45;;;;;;;1.55;1.45;;;25.00;43.50;;;;;;5075485;28;20449;-73
2023/09/26 11:57:13;;;;;;;2.10;1.50;;;25.00;43.30;;;;;;5077154;28;20420;-73
2023/09/26 11:59:40;;;;;;;2.90;1.60;;;25.10;43.60;;;;;;5068090;28;20431;-73
2023/09/26 12:02:08;;;;;;;1.60;1.40;;;25.20;44.50;;;;;;5060248;28;20438;-73
2023/09/26 12:04:35;;;;;;;1.85;1.45;;;25.30;42.80;;;;;;5069762;28;20419;-74
2023/09/26 12:07:03;;;;;;;2.20;1.40;;;25.40;42.50;;;;;;5085026;28;20427;-72
2023/09/26 12:09:29;;;;;;;2.13;1.50;;;25.50;43.00;;;;;;5086174;28;20448;-73
2023/09/26 12:11:58;;;;;;;1.60;1.40;;;25.60;42.00;;;;;;5086030;28;20427;-73
2023/09/26 12:14:25;;;;;;;1.92;1.50;;;25.60;41.30;;;;;;5084394;28;20455;-72
2023/09/26 12:16:51;;;;;;;2.60;1.45;;;25.50;41.70;;;;;;5072890;28;20949;-72
2023/09/26 12:19:19;;;;;;;1.80;1.40;;;25.60;42.50;;;;;;5076662;28;20435;-71
2023/09/26 12:21:47;;;;;;;1.90;1.50;;;25.50;42.80;;;;;;5070194;28;20428;-72
2023/09/26 12:24:14;;;;;;;2.90;1.70;;;25.40;42.50;;;;;;5068901;28;20431;-72
2023/09/26 12:26:41;;;;;;;1.73;1.40;;;25.40;42.90;;;;;;5072840;28;20775;-73
2023/09/26 12:29:10;;;;;;;1.65;1.52;;;25.40;43.20;;;;;;5077851;28;20472;-73
2023/09/26 12:31:36;;;;;;;2.30;1.58;;;25.50;43.50;;;;;;5061775;28;20469;-72
2023/09/26 12:34:03;;;;;;;2.70;1.60;;;25.60;43.60;;;;;;5076027;28;20457;-71
2023/09/26 12:36:30;;;;;;;2.10;1.70;;;25.60;44.30;;;;;;5068092;28;20427;-73
2023/09/26 12:38:57;;;;;;;2.10;1.55;;;25.60;44.00;;;;;;5067190;28;20436;-73
2023/09/26 12:41:25;;;;;;;1.90;1.47;;;25.60;44.10;;;;;;5068927;28;20442;-69
2023/09/26 12:43:52;;;;;;;2.22;1.35;;;25.70;43.50;;;;;;5076306;28;20417;-72
2023/09/26 12:46:21;;;;;;;1.60;1.50;;;25.70;43.10;;;;;;5078037;28;20433;-72
2023/09/26 12:48:47;;;;;;;1.50;1.30;;;25.70;43.10;;;;;;5067312;28;21267;-72
2023/09/26 12:51:14;;;;;;;2.05;1.52;;;25.80;42.70;;;;;;5070433;28;20925;-73